sensor_id;sensor_type;location;lat;lon;timestamp;temperature;humidity
36186;DHT22;22228;53.222;7.446;2022-10-15T00:01:05;11.50;99.90
36186;DHT22;22228;53.222;7.446;2022-10-15T00:03:26;11.50;99.90
36186;DHT22;22228;53.222;7.446;2022-10-15T00:06:12;11.50;99.90
36186;DHT22;22228;53.222;7.446;2022-10-15T00:09:05;11.40;99.90
36186;DHT22;22228;53.222;7.446;2022-10-15T00:11:27;11.30;99.90
36186;DHT22;22228;53.222;7.446;2022-10-15T00:13:49;11.30;99.90
36186;DHT22;22228;53.222;7.446;2022-10-15T00:16:20;11.30;99.90
36186;DHT22;22228;53.222;7.446;2022-10-15T00:18:41;11.40;99.90
36186;DHT22;22228;53.222;7.446;2022-10-15T00:21:05;11.30;99.90
36186;DHT22;22228;53.222;7.446;2022-10-15T00:23:26;11.40;99.90
36186;DHT22;22228;53.222;7.446;2022-10-15T00:25:48;11.30;99.90
36186;DHT22;22228;53.222;7.446;2022-10-15T00:28:17;11.30;99.90
36186;DHT22;22228;53.222;7.446;2022-10-15T00:30:38;11.30;99.90
36186;DHT22;22228;53.222;7.446;2022-10-15T00:33:24;11.30;99.90
36186;DHT22;22228;53.222;7.446;2022-10-15T00:35:46;11.30;99.90
36186;DHT22;22228;53.222;7.446;2022-10-15T00:38:17;11.30;99.90
36186;DHT22;22228;53.222;7.446;2022-10-15T00:40:40;11.30;99.90
36186;DHT22;22228;53.222;7.446;2022-10-15T00:43:08;11.40;99.90
36186;DHT22;22228;53.222;7.446;2022-10-15T00:45:29;11.40;99.90
36186;DHT22;22228;53.222;7.446;2022-10-15T00:47:51;11.40;99.90
36186;DHT22;22228;53.222;7.446;2022-10-15T00:50:37;11.40;99.90
36186;DHT22;22228;53.222;7.446;2022-10-15T00:56:17;11.40;99.90
36186;DHT22;22228;53.222;7.446;2022-10-15T00:58:41;11.40;99.90
36186;DHT22;22228;53.222;7.446;2022-10-15T01:01:02;11.40;99.90
36186;DHT22;22228;53.222;7.446;2022-10-15T01:03:25;11.30;99.90
36186;DHT22;22228;53.222;7.446;2022-10-15T01:05:53;11.30;99.90
36186;DHT22;22228;53.222;7.446;2022-10-15T01:08:24;11.30;99.90
36186;DHT22;22228;53.222;7.446;2022-10-15T01:10:50;11.30;99.90
36186;DHT22;22228;53.222;7.446;2022-10-15T01:13:16;11.30;99.90
36186;DHT22;22228;53.222;7.446;2022-10-15T01:16:15;11.30;99.90
36186;DHT22;22228;53.222;7.446;2022-10-15T01:18:41;11.30;99.90
36186;DHT22;22228;53.222;7.446;2022-10-15T01:21:10;11.40;99.90
36186;DHT22;22228;53.222;7.446;2022-10-15T01:24:24;11.50;99.90
36186;DHT22;22228;53.222;7.446;2022-10-15T01:27:12;11.50;99.90
36186;DHT22;22228;53.222;7.446;2022-10-15T01:29:54;11.60;99.90
36186;DHT22;22228;53.222;7.446;2022-10-15T01:32:24;11.60;99.90
36186;DHT22;22228;53.222;7.446;2022-10-15T01:34:51;11.60;99.90
36186;DHT22;22228;53.222;7.446;2022-10-15T01:37:18;11.60;99.90
36186;DHT22;22228;53.222;7.446;2022-10-15T01:39:43;11.60;99.90
36186;DHT22;22228;53.222;7.446;2022-10-15T01:42:11;11.60;99.90
36186;DHT22;22228;53.222;7.446;2022-10-15T01:44:37;11.60;99.90
36186;DHT22;22228;53.222;7.446;2022-10-15T01:47:03;11.50;99.90
36186;DHT22;22228;53.222;7.446;2022-10-15T01:49:30;11.50;99.90
36186;DHT22;22228;53.222;7.446;2022-10-15T01:51:56;11.60;99.90
36186;DHT22;22228;53.222;7.446;2022-10-15T01:54:24;11.60;99.90
36186;DHT22;22228;53.222;7.446;2022-10-15T01:56:47;11.60;99.90
36186;DHT22;22228;53.222;7.446;2022-10-15T01:59:12;11.60;99.90
36186;DHT22;22228;53.222;7.446;2022-10-15T02:01:35;11.50;99.90
36186;DHT22;22228;53.222;7.446;2022-10-15T02:03:58;11.50;99.90
36186;DHT22;22228;53.222;7.446;2022-10-15T02:06:26;11.50;99.90
36186;DHT22;22228;53.222;7.446;2022-10-15T02:08:59;11.40;99.90
36186;DHT22;22228;53.222;7.446;2022-10-15T02:11:21;11.40;99.90
36186;DHT22;22228;53.222;7.446;2022-10-15T02:14:12;11.40;99.90
36186;DHT22;22228;53.222;7.446;2022-10-15T02:16:40;11.40;99.90
36186;DHT22;22228;53.222;7.446;2022-10-15T02:19:06;11.50;99.90
36186;DHT22;22228;53.222;7.446;2022-10-15T02:21:31;11.50;99.90
36186;DHT22;22228;53.222;7.446;2022-10-15T02:24:23;11.50;99.90
36186;DHT22;22228;53.222;7.446;2022-10-15T02:26:44;11.50;99.90
36186;DHT22;22228;53.222;7.446;2022-10-15T02:29:11;11.50;99.90
36186;DHT22;22228;53.222;7.446;2022-10-15T02:31:34;11.50;99.90
36186;DHT22;22228;53.222;7.446;2022-10-15T02:34:52;11.50;99.90
36186;DHT22;22228;53.222;7.446;2022-10-15T02:37:25;11.50;99.90
36186;DHT22;22228;53.222;7.446;2022-10-15T02:39:47;11.50;99.90
36186;DHT22;22228;53.222;7.446;2022-10-15T02:42:08;11.50;99.90
36186;DHT22;22228;53.222;7.446;2022-10-15T02:44:29;11.50;99.90
36186;DHT22;22228;53.222;7.446;2022-10-15T02:46:50;11.50;99.90
36186;DHT22;22228;53.222;7.446;2022-10-15T02:49:12;11.60;99.90
36186;DHT22;22228;53.222;7.446;2022-10-15T02:51:36;11.60;99.90
36186;DHT22;22228;53.222;7.446;2022-10-15T02:53:59;11.60;99.90
36186;DHT22;22228;53.222;7.446;2022-10-15T02:56:20;11.60;99.90
36186;DHT22;22228;53.222;7.446;2022-10-15T02:58:47;11.60;99.90
36186;DHT22;22228;53.222;7.446;2022-10-15T03:01:08;11.60;99.90
36186;DHT22;22228;53.222;7.446;2022-10-15T03:03:55;11.60;99.90
36186;DHT22;22228;53.222;7.446;2022-10-15T03:06:16;11.60;99.90
36186;DHT22;22228;53.222;7.446;2022-10-15T03:08:40;11.60;99.90
36186;DHT22;22228;53.222;7.446;2022-10-15T03:11:10;11.60;99.90
36186;DHT22;22228;53.222;7.446;2022-10-15T03:13:38;11.60;99.90
36186;DHT22;22228;53.222;7.446;2022-10-15T03:16:03;11.60;99.90
36186;DHT22;22228;53.222;7.446;2022-10-15T03:18:50;11.50;99.90
36186;DHT22;22228;53.222;7.446;2022-10-15T03:21:19;11.60;99.90
36186;DHT22;22228;53.222;7.446;2022-10-15T03:23:40;11.60;99.90
36186;DHT22;22228;53.222;7.446;2022-10-15T03:26:12;11.50;99.90
36186;DHT22;22228;53.222;7.446;2022-10-15T03:28:36;11.50;99.90
36186;DHT22;22228;53.222;7.446;2022-10-15T03:30:56;11.50;99.90
36186;DHT22;22228;53.222;7.446;2022-10-15T03:33:19;11.50;99.90
36186;DHT22;22228;53.222;7.446;2022-10-15T03:35:45;11.50;99.90
36186;DHT22;22228;53.222;7.446;2022-10-15T03:38:06;11.50;99.90
36186;DHT22;22228;53.222;7.446;2022-10-15T03:40:52;11.60;99.90
36186;DHT22;22228;53.222;7.446;2022-10-15T03:43:24;11.60;99.90
36186;DHT22;22228;53.222;7.446;2022-10-15T03:48:58;11.60;99.90
36186;DHT22;22228;53.222;7.446;2022-10-15T03:51:18;11.60;99.90
36186;DHT22;22228;53.222;7.446;2022-10-15T03:54:04;11.60;99.90
36186;DHT22;22228;53.222;7.446;2022-10-15T03:56:31;11.60;99.90
36186;DHT22;22228;53.222;7.446;2022-10-15T03:59:19;11.50;99.90
36186;DHT22;22228;53.222;7.446;2022-10-15T04:01:55;11.60;99.90
36186;DHT22;22228;53.222;7.446;2022-10-15T04:04:17;11.60;99.90
36186;DHT22;22228;53.222;7.446;2022-10-15T04:07:04;11.60;99.90
36186;DHT22;22228;53.222;7.446;2022-10-15T04:09:26;11.50;99.90
36186;DHT22;22228;53.222;7.446;2022-10-15T04:12:05;11.50;99.90
36186;DHT22;22228;53.222;7.446;2022-10-15T04:14:31;11.50;99.90
36186;DHT22;22228;53.222;7.446;2022-10-15T04:16:51;11.50;99.90
36186;DHT22;22228;53.222;7.446;2022-10-15T04:19:18;11.50;99.90
36186;DHT22;22228;53.222;7.446;2022-10-15T04:21:51;11.50;99.90
36186;DHT22;22228;53.222;7.446;2022-10-15T04:24:32;11.60;99.90
36186;DHT22;22228;53.222;7.446;2022-10-15T04:27:47;11.50;99.90
36186;DHT22;22228;53.222;7.446;2022-10-15T04:30:13;11.50;99.90
36186;DHT22;22228;53.222;7.446;2022-10-15T04:32:42;11.50;99.90
36186;DHT22;22228;53.222;7.446;2022-10-15T04:35:12;11.50;99.90
36186;DHT22;22228;53.222;7.446;2022-10-15T04:38:08;11.60;99.90
36186;DHT22;22228;53.222;7.446;2022-10-15T04:40:58;11.60;99.90
36186;DHT22;22228;53.222;7.446;2022-10-15T04:43:26;11.70;99.90
36186;DHT22;22228;53.222;7.446;2022-10-15T04:45:56;11.70;99.90
36186;DHT22;22228;53.222;7.446;2022-10-15T04:48:18;11.60;99.90
36186;DHT22;22228;53.222;7.446;2022-10-15T04:50:44;11.70;99.90
36186;DHT22;22228;53.222;7.446;2022-10-15T04:53:13;11.60;99.90
36186;DHT22;22228;53.222;7.446;2022-10-15T04:56:00;11.60;99.90
36186;DHT22;22228;53.222;7.446;2022-10-15T04:58:49;11.60;99.90
36186;DHT22;22228;53.222;7.446;2022-10-15T05:01:15;11.60;99.90
36186;DHT22;22228;53.222;7.446;2022-10-15T05:03:48;11.60;99.90
36186;DHT22;22228;53.222;7.446;2022-10-15T05:06:36;11.60;99.90
36186;DHT22;22228;53.222;7.446;2022-10-15T05:09:14;11.60;99.90
36186;DHT22;22228;53.222;7.446;2022-10-15T05:11:41;11.60;99.90
36186;DHT22;22228;53.222;7.446;2022-10-15T05:14:06;11.60;99.90
36186;DHT22;22228;53.222;7.446;2022-10-15T05:16:30;11.60;99.90
36186;DHT22;22228;53.222;7.446;2022-10-15T05:18:55;11.60;99.90
36186;DHT22;22228;53.222;7.446;2022-10-15T05:21:17;11.60;99.90
36186;DHT22;22228;53.222;7.446;2022-10-15T05:23:41;11.60;99.90
36186;DHT22;22228;53.222;7.446;2022-10-15T05:26:14;11.60;99.90
36186;DHT22;22228;53.222;7.446;2022-10-15T05:28:37;11.60;99.90
36186;DHT22;22228;53.222;7.446;2022-10-15T05:31:06;11.60;99.90
36186;DHT22;22228;53.222;7.446;2022-10-15T05:33:30;11.60;99.90
36186;DHT22;22228;53.222;7.446;2022-10-15T05:35:51;11.60;99.90
36186;DHT22;22228;53.222;7.446;2022-10-15T05:38:14;11.60;99.90
36186;DHT22;22228;53.222;7.446;2022-10-15T05:40:36;11.60;99.90
36186;DHT22;22228;53.222;7.446;2022-10-15T05:43:06;11.50;99.90
36186;DHT22;22228;53.222;7.446;2022-10-15T05:45:27;11.50;99.90
36186;DHT22;22228;53.222;7.446;2022-10-15T05:47:53;11.50;99.90
36186;DHT22;22228;53.222;7.446;2022-10-15T05:50:22;11.50;99.90
36186;DHT22;22228;53.222;7.446;2022-10-15T05:52:48;11.40;99.90
36186;DHT22;22228;53.222;7.446;2022-10-15T05:55:22;11.40;99.90
36186;DHT22;22228;53.222;7.446;2022-10-15T05:57:42;11.40;99.90
36186;DHT22;22228;53.222;7.446;2022-10-15T06:00:06;11.30;99.90
36186;DHT22;22228;53.222;7.446;2022-10-15T06:02:34;11.30;99.90
36186;DHT22;22228;53.222;7.446;2022-10-15T06:05:02;11.30;99.90
36186;DHT22;22228;53.222;7.446;2022-10-15T06:07:27;11.20;99.90
36186;DHT22;22228;53.222;7.446;2022-10-15T06:09:48;11.20;99.90
36186;DHT22;22228;53.222;7.446;2022-10-15T06:12:16;11.20;99.90
36186;DHT22;22228;53.222;7.446;2022-10-15T06:15:03;11.20;99.90
36186;DHT22;22228;53.222;7.446;2022-10-15T06:17:25;11.20;99.90
36186;DHT22;22228;53.222;7.446;2022-10-15T06:19:45;11.30;99.90
36186;DHT22;22228;53.222;7.446;2022-10-15T06:22:06;11.30;99.90
36186;DHT22;22228;53.222;7.446;2022-10-15T06:24:30;11.30;99.90
36186;DHT22;22228;53.222;7.446;2022-10-15T06:26:52;11.30;99.90
36186;DHT22;22228;53.222;7.446;2022-10-15T06:29:13;11.30;99.90
36186;DHT22;22228;53.222;7.446;2022-10-15T06:31:36;11.30;99.90
36186;DHT22;22228;53.222;7.446;2022-10-15T06:33:57;11.30;99.90
36186;DHT22;22228;53.222;7.446;2022-10-15T06:36:25;11.30;99.90
36186;DHT22;22228;53.222;7.446;2022-10-15T06:38:51;11.40;99.90
36186;DHT22;22228;53.222;7.446;2022-10-15T06:41:13;11.40;99.90
36186;DHT22;22228;53.222;7.446;2022-10-15T06:43:35;11.40;99.90
36186;DHT22;22228;53.222;7.446;2022-10-15T06:45:58;11.40;99.90
36186;DHT22;22228;53.222;7.446;2022-10-15T06:48:19;11.40;99.90
36186;DHT22;22228;53.222;7.446;2022-10-15T06:50:41;11.40;99.90
36186;DHT22;22228;53.222;7.446;2022-10-15T06:53:01;11.40;99.90
36186;DHT22;22228;53.222;7.446;2022-10-15T06:55:22;11.50;99.90
36186;DHT22;22228;53.222;7.446;2022-10-15T06:58:09;11.50;99.90
36186;DHT22;22228;53.222;7.446;2022-10-15T07:00:58;11.50;99.90
36186;DHT22;22228;53.222;7.446;2022-10-15T07:03:26;11.60;99.90
36186;DHT22;22228;53.222;7.446;2022-10-15T07:05:47;11.60;99.90
36186;DHT22;22228;53.222;7.446;2022-10-15T07:08:13;11.60;99.90
36186;DHT22;22228;53.222;7.446;2022-10-15T07:10:33;11.60;99.90
36186;DHT22;22228;53.222;7.446;2022-10-15T07:12:55;11.70;99.90
36186;DHT22;22228;53.222;7.446;2022-10-15T07:15:41;11.70;99.90
36186;DHT22;22228;53.222;7.446;2022-10-15T07:18:04;11.80;99.90
36186;DHT22;22228;53.222;7.446;2022-10-15T07:20:32;11.80;99.90
36186;DHT22;22228;53.222;7.446;2022-10-15T07:23:01;11.70;99.90
36186;DHT22;22228;53.222;7.446;2022-10-15T07:25:30;11.80;99.90
36186;DHT22;22228;53.222;7.446;2022-10-15T07:27:52;11.80;99.90
36186;DHT22;22228;53.222;7.446;2022-10-15T07:30:16;11.80;99.90
36186;DHT22;22228;53.222;7.446;2022-10-15T07:32:38;11.90;99.90
36186;DHT22;22228;53.222;7.446;2022-10-15T07:35:05;11.90;99.90
36186;DHT22;22228;53.222;7.446;2022-10-15T07:37:52;12.00;99.90
36186;DHT22;22228;53.222;7.446;2022-10-15T07:40:14;12.00;99.90
36186;DHT22;22228;53.222;7.446;2022-10-15T07:42:35;12.10;99.90
36186;DHT22;22228;53.222;7.446;2022-10-15T07:45:02;12.10;99.90
36186;DHT22;22228;53.222;7.446;2022-10-15T07:47:49;12.20;99.90
36186;DHT22;22228;53.222;7.446;2022-10-15T07:50:10;12.20;99.90
36186;DHT22;22228;53.222;7.446;2022-10-15T07:52:32;12.20;99.90
36186;DHT22;22228;53.222;7.446;2022-10-15T07:54:53;12.20;99.90
36186;DHT22;22228;53.222;7.446;2022-10-15T07:57:19;12.10;99.90
36186;DHT22;22228;53.222;7.446;2022-10-15T07:59:41;12.10;99.90
36186;DHT22;22228;53.222;7.446;2022-10-15T08:02:05;12.10;99.90
36186;DHT22;22228;53.222;7.446;2022-10-15T08:04:27;12.10;99.90
36186;DHT22;22228;53.222;7.446;2022-10-15T08:06:49;12.10;99.90
36186;DHT22;22228;53.222;7.446;2022-10-15T08:09:15;12.10;99.90
36186;DHT22;22228;53.222;7.446;2022-10-15T08:11:40;12.10;99.90
36186;DHT22;22228;53.222;7.446;2022-10-15T08:14:04;12.10;99.90
36186;DHT22;22228;53.222;7.446;2022-10-15T08:16:25;12.10;99.90
36186;DHT22;22228;53.222;7.446;2022-10-15T08:19:17;12.20;99.90
36186;DHT22;22228;53.222;7.446;2022-10-15T08:21:39;12.20;99.90
36186;DHT22;22228;53.222;7.446;2022-10-15T08:24:02;12.30;99.90
36186;DHT22;22228;53.222;7.446;2022-10-15T08:26:29;12.40;99.90
36186;DHT22;22228;53.222;7.446;2022-10-15T08:28:52;12.60;99.90
36186;DHT22;22228;53.222;7.446;2022-10-15T08:31:13;12.70;99.90
36186;DHT22;22228;53.222;7.446;2022-10-15T08:33:35;12.80;99.90
36186;DHT22;22228;53.222;7.446;2022-10-15T08:35:57;12.90;99.90
36186;DHT22;22228;53.222;7.446;2022-10-15T08:38:19;13.00;99.90
36186;DHT22;22228;53.222;7.446;2022-10-15T08:40:40;13.10;99.90
36186;DHT22;22228;53.222;7.446;2022-10-15T08:43:17;13.20;99.90
36186;DHT22;22228;53.222;7.446;2022-10-15T08:46:10;13.20;99.90
36186;DHT22;22228;53.222;7.446;2022-10-15T08:48:46;13.30;99.90
36186;DHT22;22228;53.222;7.446;2022-10-15T08:51:15;13.30;99.90
36186;DHT22;22228;53.222;7.446;2022-10-15T08:54:05;13.30;99.90
36186;DHT22;22228;53.222;7.446;2022-10-15T08:56:29;13.30;99.90
36186;DHT22;22228;53.222;7.446;2022-10-15T08:59:00;13.30;99.90
36186;DHT22;22228;53.222;7.446;2022-10-15T09:01:51;13.30;99.90
36186;DHT22;22228;53.222;7.446;2022-10-15T09:04:22;13.40;99.90
36186;DHT22;22228;53.222;7.446;2022-10-15T09:06:55;13.40;99.90
36186;DHT22;22228;53.222;7.446;2022-10-15T09:12:40;13.50;99.90
36186;DHT22;22228;53.222;7.446;2022-10-15T09:15:03;13.60;99.90
36186;DHT22;22228;53.222;7.446;2022-10-15T09:17:29;13.70;99.90
36186;DHT22;22228;53.222;7.446;2022-10-15T09:19:56;13.70;99.90
36186;DHT22;22228;53.222;7.446;2022-10-15T09:22:22;13.80;99.90
36186;DHT22;22228;53.222;7.446;2022-10-15T09:24:46;13.90;99.90
36186;DHT22;22228;53.222;7.446;2022-10-15T09:27:11;13.90;99.90
36186;DHT22;22228;53.222;7.446;2022-10-15T09:29:45;14.10;99.90
36186;DHT22;22228;53.222;7.446;2022-10-15T09:32:19;14.10;99.90
36186;DHT22;22228;53.222;7.446;2022-10-15T09:34:47;14.20;99.90
36186;DHT22;22228;53.222;7.446;2022-10-15T09:37:24;14.30;99.90
36186;DHT22;22228;53.222;7.446;2022-10-15T09:40:01;14.40;99.90
36186;DHT22;22228;53.222;7.446;2022-10-15T09:42:29;14.60;99.90
36186;DHT22;22228;53.222;7.446;2022-10-15T09:45:17;14.60;99.90
36186;DHT22;22228;53.222;7.446;2022-10-15T09:47:41;14.80;99.90
36186;DHT22;22228;53.222;7.446;2022-10-15T09:50:04;14.90;99.90
36186;DHT22;22228;53.222;7.446;2022-10-15T09:52:41;15.00;99.90
36186;DHT22;22228;53.222;7.446;2022-10-15T09:55:09;15.20;99.90
36186;DHT22;22228;53.222;7.446;2022-10-15T09:57:36;15.30;99.90
36186;DHT22;22228;53.222;7.446;2022-10-15T09:59:59;15.30;99.90
36186;DHT22;22228;53.222;7.446;2022-10-15T10:03:01;15.50;99.90
36186;DHT22;22228;53.222;7.446;2022-10-15T10:05:28;15.60;99.90
36186;DHT22;22228;53.222;7.446;2022-10-15T10:08:06;15.60;99.90
36186;DHT22;22228;53.222;7.446;2022-10-15T10:10:55;15.60;99.90
36186;DHT22;22228;53.222;7.446;2022-10-15T10:13:22;15.70;99.90
36186;DHT22;22228;53.222;7.446;2022-10-15T10:15:45;15.70;99.90
36186;DHT22;22228;53.222;7.446;2022-10-15T10:18:17;15.70;99.90
36186;DHT22;22228;53.222;7.446;2022-10-15T10:20:52;15.60;99.90
36186;DHT22;22228;53.222;7.446;2022-10-15T10:23:21;15.50;99.90
36186;DHT22;22228;53.222;7.446;2022-10-15T10:25:56;15.40;99.90
36186;DHT22;22228;53.222;7.446;2022-10-15T10:28:28;15.30;99.90
36186;DHT22;22228;53.222;7.446;2022-10-15T10:31:17;15.20;99.90
36186;DHT22;22228;53.222;7.446;2022-10-15T10:33:45;15.10;99.90
36186;DHT22;22228;53.222;7.446;2022-10-15T10:36:34;15.10;99.90
36186;DHT22;22228;53.222;7.446;2022-10-15T10:39:01;15.20;99.90
36186;DHT22;22228;53.222;7.446;2022-10-15T10:41:49;15.20;99.90
36186;DHT22;22228;53.222;7.446;2022-10-15T10:44:18;15.20;99.90
36186;DHT22;22228;53.222;7.446;2022-10-15T10:46:41;15.10;99.90
36186;DHT22;22228;53.222;7.446;2022-10-15T10:49:03;15.20;99.90
36186;DHT22;22228;53.222;7.446;2022-10-15T10:51:25;15.20;99.90
36186;DHT22;22228;53.222;7.446;2022-10-15T10:53:55;15.20;99.90
36186;DHT22;22228;53.222;7.446;2022-10-15T10:56:22;15.20;99.90
36186;DHT22;22228;53.222;7.446;2022-10-15T10:58:52;15.30;99.90
36186;DHT22;22228;53.222;7.446;2022-10-15T11:01:15;15.20;99.90
36186;DHT22;22228;53.222;7.446;2022-10-15T11:04:11;15.20;99.90
36186;DHT22;22228;53.222;7.446;2022-10-15T11:07:03;15.20;99.90
36186;DHT22;22228;53.222;7.446;2022-10-15T11:09:47;15.20;99.90
36186;DHT22;22228;53.222;7.446;2022-10-15T11:12:29;15.20;99.90
36186;DHT22;22228;53.222;7.446;2022-10-15T11:14:59;15.20;99.90
36186;DHT22;22228;53.222;7.446;2022-10-15T11:17:40;15.20;99.90
36186;DHT22;22228;53.222;7.446;2022-10-15T11:20:21;15.10;99.90
36186;DHT22;22228;53.222;7.446;2022-10-15T11:22:54;15.10;99.90
36186;DHT22;22228;53.222;7.446;2022-10-15T11:25:32;15.10;99.90
36186;DHT22;22228;53.222;7.446;2022-10-15T11:28:26;15.20;99.90
36186;DHT22;22228;53.222;7.446;2022-10-15T11:30:58;15.30;99.90
36186;DHT22;22228;53.222;7.446;2022-10-15T11:34:00;15.30;99.90
36186;DHT22;22228;53.222;7.446;2022-10-15T11:36:40;15.40;99.90
36186;DHT22;22228;53.222;7.446;2022-10-15T11:39:25;15.50;99.90
36186;DHT22;22228;53.222;7.446;2022-10-15T11:41:54;15.60;99.90
36186;DHT22;22228;53.222;7.446;2022-10-15T11:44:30;15.70;99.90
36186;DHT22;22228;53.222;7.446;2022-10-15T11:47:05;15.90;99.90
36186;DHT22;22228;53.222;7.446;2022-10-15T11:49:40;16.10;99.90
36186;DHT22;22228;53.222;7.446;2022-10-15T11:52:26;16.20;99.90
36186;DHT22;22228;53.222;7.446;2022-10-15T11:58:06;16.50;99.90
36186;DHT22;22228;53.222;7.446;2022-10-15T12:00:35;16.80;99.90
36186;DHT22;22228;53.222;7.446;2022-10-15T12:03:05;17.00;99.90
36186;DHT22;22228;53.222;7.446;2022-10-15T12:05:55;17.10;99.90
36186;DHT22;22228;53.222;7.446;2022-10-15T12:08:23;17.20;99.90
36186;DHT22;22228;53.222;7.446;2022-10-15T12:11:02;17.20;99.90
36186;DHT22;22228;53.222;7.446;2022-10-15T12:13:32;17.30;99.90
36186;DHT22;22228;53.222;7.446;2022-10-15T12:19:46;17.30;99.90
36186;DHT22;22228;53.222;7.446;2022-10-15T12:22:31;17.20;99.90
36186;DHT22;22228;53.222;7.446;2022-10-15T12:24:55;17.20;99.90
36186;DHT22;22228;53.222;7.446;2022-10-15T12:27:24;17.10;99.90
36186;DHT22;22228;53.222;7.446;2022-10-15T12:29:47;17.00;99.90
36186;DHT22;22228;53.222;7.446;2022-10-15T12:32:21;17.00;99.90
36186;DHT22;22228;53.222;7.446;2022-10-15T12:34:42;17.00;99.90
36186;DHT22;22228;53.222;7.446;2022-10-15T12:37:15;17.00;99.90
36186;DHT22;22228;53.222;7.446;2022-10-15T12:39:39;16.90;99.90
36186;DHT22;22228;53.222;7.446;2022-10-15T12:42:02;16.90;99.90
36186;DHT22;22228;53.222;7.446;2022-10-15T12:44:31;17.00;99.90
36186;DHT22;22228;53.222;7.446;2022-10-15T12:46:53;17.00;99.90
36186;DHT22;22228;53.222;7.446;2022-10-15T12:49:46;16.90;99.90
36186;DHT22;22228;53.222;7.446;2022-10-15T12:52:50;17.00;99.90
36186;DHT22;22228;53.222;7.446;2022-10-15T12:55:21;17.00;99.90
36186;DHT22;22228;53.222;7.446;2022-10-15T12:57:59;17.10;99.90
36186;DHT22;22228;53.222;7.446;2022-10-15T13:00:40;17.10;99.90
36186;DHT22;22228;53.222;7.446;2022-10-15T13:03:33;17.20;99.90
36186;DHT22;22228;53.222;7.446;2022-10-15T13:06:12;17.40;99.90
36186;DHT22;22228;53.222;7.446;2022-10-15T13:08:35;17.40;99.90
36186;DHT22;22228;53.222;7.446;2022-10-15T13:10:57;17.40;99.90
36186;DHT22;22228;53.222;7.446;2022-10-15T13:13:22;17.40;99.90
36186;DHT22;22228;53.222;7.446;2022-10-15T13:15:50;17.40;99.90
36186;DHT22;22228;53.222;7.446;2022-10-15T13:18:12;17.40;99.90
36186;DHT22;22228;53.222;7.446;2022-10-15T13:20:42;17.20;99.90
36186;DHT22;22228;53.222;7.446;2022-10-15T13:23:29;17.10;99.90
36186;DHT22;22228;53.222;7.446;2022-10-15T13:26:21;17.00;99.90
36186;DHT22;22228;53.222;7.446;2022-10-15T13:28:47;17.00;99.90
36186;DHT22;22228;53.222;7.446;2022-10-15T13:31:14;16.90;99.90
36186;DHT22;22228;53.222;7.446;2022-10-15T13:33:43;16.90;99.90
36186;DHT22;22228;53.222;7.446;2022-10-15T13:36:17;16.80;99.90
36186;DHT22;22228;53.222;7.446;2022-10-15T13:38:39;16.70;99.90
36186;DHT22;22228;53.222;7.446;2022-10-15T13:41:02;16.60;99.90
36186;DHT22;22228;53.222;7.446;2022-10-15T13:43:54;16.50;99.90
36186;DHT22;22228;53.222;7.446;2022-10-15T13:46:39;16.30;99.90
36186;DHT22;22228;53.222;7.446;2022-10-15T13:49:02;16.20;99.90
36186;DHT22;22228;53.222;7.446;2022-10-15T13:51:36;16.10;99.90
36186;DHT22;22228;53.222;7.446;2022-10-15T13:54:01;16.10;99.90
36186;DHT22;22228;53.222;7.446;2022-10-15T13:56:29;16.00;99.90
36186;DHT22;22228;53.222;7.446;2022-10-15T13:58:52;15.90;99.90
36186;DHT22;22228;53.222;7.446;2022-10-15T14:01:45;15.80;99.90
36186;DHT22;22228;53.222;7.446;2022-10-15T14:04:15;15.80;99.90
36186;DHT22;22228;53.222;7.446;2022-10-15T14:09:48;15.70;99.90
36186;DHT22;22228;53.222;7.446;2022-10-15T14:12:10;15.60;99.90
36186;DHT22;22228;53.222;7.446;2022-10-15T14:18:30;15.40;99.90
36186;DHT22;22228;53.222;7.446;2022-10-15T14:20:54;15.40;99.90
36186;DHT22;22228;53.222;7.446;2022-10-15T14:23:21;15.40;99.90
36186;DHT22;22228;53.222;7.446;2022-10-15T14:25:43;15.30;99.90
36186;DHT22;22228;53.222;7.446;2022-10-15T14:28:05;15.30;99.90
36186;DHT22;22228;53.222;7.446;2022-10-15T14:30:37;15.20;99.90
36186;DHT22;22228;53.222;7.446;2022-10-15T14:32:57;15.20;99.90
36186;DHT22;22228;53.222;7.446;2022-10-15T14:35:32;15.20;99.90
36186;DHT22;22228;53.222;7.446;2022-10-15T14:37:58;15.20;99.90
36186;DHT22;22228;53.222;7.446;2022-10-15T14:40:21;15.10;99.90
36186;DHT22;22228;53.222;7.446;2022-10-15T14:42:43;15.10;99.90
36186;DHT22;22228;53.222;7.446;2022-10-15T14:45:11;15.10;99.90
36186;DHT22;22228;53.222;7.446;2022-10-15T14:47:34;15.10;99.90
36186;DHT22;22228;53.222;7.446;2022-10-15T14:50:30;15.10;99.90
36186;DHT22;22228;53.222;7.446;2022-10-15T14:53:19;15.10;99.90
36186;DHT22;22228;53.222;7.446;2022-10-15T14:55:46;15.00;99.90
36186;DHT22;22228;53.222;7.446;2022-10-15T14:58:18;15.00;99.90
36186;DHT22;22228;53.222;7.446;2022-10-15T15:00:41;15.00;99.90
36186;DHT22;22228;53.222;7.446;2022-10-15T15:03:05;15.00;99.90
36186;DHT22;22228;53.222;7.446;2022-10-15T15:06:16;15.00;99.90
36186;DHT22;22228;53.222;7.446;2022-10-15T15:08:49;15.00;99.90
36186;DHT22;22228;53.222;7.446;2022-10-15T15:11:14;15.00;99.90
36186;DHT22;22228;53.222;7.446;2022-10-15T15:13:40;15.00;99.90
36186;DHT22;22228;53.222;7.446;2022-10-15T15:16:02;15.00;99.90
36186;DHT22;22228;53.222;7.446;2022-10-15T15:18:49;15.00;99.90
36186;DHT22;22228;53.222;7.446;2022-10-15T15:21:12;15.10;99.90
36186;DHT22;22228;53.222;7.446;2022-10-15T15:23:35;15.10;99.90
36186;DHT22;22228;53.222;7.446;2022-10-15T15:25:56;15.20;99.90
36186;DHT22;22228;53.222;7.446;2022-10-15T15:28:18;15.30;99.90
36186;DHT22;22228;53.222;7.446;2022-10-15T15:30:50;15.30;99.90
36186;DHT22;22228;53.222;7.446;2022-10-15T15:33:15;15.30;99.90
36186;DHT22;22228;53.222;7.446;2022-10-15T15:35:41;15.30;99.90
36186;DHT22;22228;53.222;7.446;2022-10-15T15:38:15;15.30;99.90
36186;DHT22;22228;53.222;7.446;2022-10-15T15:40:37;15.30;99.90
36186;DHT22;22228;53.222;7.446;2022-10-15T15:43:01;15.30;99.90
36186;DHT22;22228;53.222;7.446;2022-10-15T15:45:28;15.30;99.90
36186;DHT22;22228;53.222;7.446;2022-10-15T15:47:49;15.30;99.90
36186;DHT22;22228;53.222;7.446;2022-10-15T15:50:17;15.40;99.90
36186;DHT22;22228;53.222;7.446;2022-10-15T15:53:04;15.40;99.90
36186;DHT22;22228;53.222;7.446;2022-10-15T15:55:25;15.40;99.90
36186;DHT22;22228;53.222;7.446;2022-10-15T15:57:46;15.40;99.90
36186;DHT22;22228;53.222;7.446;2022-10-15T16:00:32;15.40;99.90
36186;DHT22;22228;53.222;7.446;2022-10-15T16:02:53;15.30;99.90
36186;DHT22;22228;53.222;7.446;2022-10-15T16:05:43;15.40;99.90
36186;DHT22;22228;53.222;7.446;2022-10-15T16:08:07;15.30;99.90
36186;DHT22;22228;53.222;7.446;2022-10-15T16:11:00;15.30;99.90
36186;DHT22;22228;53.222;7.446;2022-10-15T16:13:28;15.30;99.90